Abuna, Brazil
Current Conditions -  °F | °C
As of 5:00 PM on Sunday 23 Nov 2014 (Local Time) from SLRI Reporting Station
Thunderstorm Thunderstorm  
Wind Chill: 81°   Ceiling: 1500
Heat Index: 85°   Visibility: 4mi
Dew Point: 73°   Wind: 14mph
Humidity: 79%   Direction: 170°S
Pressure: 29.77"   Gusts: NA
Location:  9.7°S, 65.37°W
Report Text: SLRI 232100Z 17012KT 6000 TS VCSH SCT008 BKN015 FEW020CB OVC070 27/23 Q1008
Loading
Personal Weather Stations






























Interactive Weather Map New forecast layout! Learn more

10-Day Weather Forecast

Advertisements
Track Severe Weather on mobile